Aeroporto :
LOGIN :

Iscrizione | Disclaimer

   EN    FR    IT 

 










Sommario :    VFR   VFR Marginale   IFR   IFR Intensivo   IFR Molto Intensivo
Visibilità : 
Base nubi : 
>= 8 km
>= 3000ft
5 / 8 km
1000 / 3000 ft
1500m / 5 km
500 / 1000 ft
800 / 1500m
200 / 500 ft
< 800m
< 200 ft
Simboli :   Temporali  Nebbia  Neve Forte  Precipitazioni Forti  Vento > 20 kt
SIGMETs :   Varie  Temporali  Ghiacco  Turbolenza  Onda orograficha  Ceneri Vulcaniche






- Altitudine del aeroporto : 1071 ft
- Codice IATA : LWO


UKLL - L'viv

ULTIMO METAR :
  • 210630Z 28008MPS 9999 OVC012 M01/M02 Q1038 R31/190070 NOSIG

METARs OBSOLETI :
  • 210600Z 28006MPS 260V320 9999 OVC012 M01/M03 Q1039 R31/190070 NOSIG
  • 210530Z 29005MPS 9999 OVC013 M00/M02 Q1039 R31/190070 NOSIG
  • 210500Z 29007MPS 260V320 9999 OVC013 M00/M02 Q1039 R31/190070 NOSIG
  • 210430Z 28006MPS 250V310 9999 OVC013 M00/M02 Q1039 R31/190070 NOSIG
  • 210400Z 28007MPS 9999 OVC013 M00/M02 Q1039 R31/190070 NOSIG

TAF TAF UKLL
Valido dal 21 a 06 ore il 22 a 06 ore UTC


210506Z 2106/2206 27006G11MPS 5000 BR BKN010 TX02/2113Z TNM01/2106Z
TEMPO 2106/2108 28009G14MPS 0600 FZFG VV002
TEMPO 2108/2118 29010G15MPS
TEMPO 2118/2206 28009G14MPS 2100 BR BKN007



MetMap, La meteo Aeronautica in un colpo d'occhio ! - Copyright ORBIFLY Dicembre 2007 - Disclaimer

ORBIFLY MET'MAP TEAM :

Programmazione e sviluppo : Alexandra Zaïnal
Concezione : Baudouin d'Aumeries
Aiuto per la programmazione : Marc-Olivier Méhu
Supporto tecnico e logistico : Manuel Goepfert
Aiuto per la traduzione : Arnaldo La Scala

Contatto : metmap@orbifly.com




FONTI E CREDITI :

   NOAA